Time;durP1;ratioP1;P1;durP2;ratioP2;P2;SDS_P1;SDS_P2;PMS_P1;PMS_P2;Temp;Humidity;BMP_temperature;BMP_pressure;BME280_temperature;BME280_humidity;BME280_pressure;Samples;Min_cycle;Max_cycle;Signal;HPM_P1;HPM_P2
2023/05/08 00:00:57;;;;;;;19.17;13.35;;;;;;;5.77;91.13;100677.75;5097514;28;20020;-84
2023/05/08 00:03:23;;;;;;;19.75;14.10;;;;;;;6.09;90.98;100725.72;5115696;28;20020;-83
2023/05/08 00:05:48;;;;;;;17.75;13.98;;;;;;;6.12;90.84;100730.88;5097356;28;20031;-84
2023/05/08 00:08:14;;;;;;;16.80;12.25;;;;;;;5.73;91.26;100676.94;5097184;28;20364;-84
2023/05/08 00:10:39;;;;;;;18.85;13.27;;;;;;;5.91;91.50;100706.91;5115541;28;20425;-84
2023/05/08 00:13:05;;;;;;;17.50;12.65;;;;;;;6.09;91.34;100739.50;5115650;28;20500;-84
2023/05/08 00:15:30;;;;;;;18.70;12.60;;;;;;;5.97;91.43;100730.13;5115342;28;20024;-84
2023/05/08 00:17:55;;;;;;;21.38;13.57;;;;;;;5.88;91.57;100713.84;5097289;28;20048;-84
2023/05/08 00:20:20;;;;;;;27.25;17.90;;;;;;;5.73;91.60;100695.03;5115593;28;20027;-83
2023/05/08 00:22:46;;;;;;;35.83;20.10;;;;;;;5.69;91.78;100688.19;5115431;28;20031;-84
2023/05/08 00:25:11;;;;;;;23.73;15.13;;;;;;;5.94;91.83;100747.41;5115279;28;20027;-84
2023/05/08 00:27:36;;;;;;;21.75;14.85;;;;;;;5.80;91.94;100728.56;5115058;28;20050;-84
2023/05/08 00:30:02;;;;;;;20.67;15.65;;;;;;;5.89;91.76;100743.97;5115297;28;20431;-84
2023/05/08 00:32:27;;;;;;;19.75;14.40;;;;;;;5.69;91.63;100708.00;5096806;28;20490;-84
2023/05/08 00:34:53;;;;;;;18.58;13.13;;;;;;;5.66;92.14;100708.88;5096587;28;20437;-84
2023/05/08 00:37:18;;;;;;;20.95;14.82;;;;;;;5.79;92.04;100727.72;5096744;28;20036;-84
2023/05/08 00:39:43;;;;;;;17.25;11.52;;;;;;;5.58;91.58;100689.16;5114937;28;20073;-84
2023/05/08 00:42:09;;;;;;;14.52;10.90;;;;;;;5.79;91.77;100734.63;5115111;28;20028;-84
2023/05/08 00:44:34;;;;;;;14.65;10.57;;;;;;;5.76;91.97;100731.16;5096381;28;20055;-84
2023/05/08 00:47:00;;;;;;;12.05;10.35;;;;;;;5.40;91.95;100669.53;5114882;28;20031;-84
2023/05/08 00:49:26;;;;;;;14.32;10.57;;;;;;;5.71;92.40;100742.44;5114656;28;20034;-84
2023/05/08 00:51:54;;;;;;;11.90;9.45;;;;;;;5.36;92.71;100686.78;5096467;28;20032;-84
2023/05/08 00:54:20;;;;;;;12.43;9.43;;;;;;;5.63;93.06;100737.34;5096456;28;20514;-84
2023/05/08 00:56:47;;;;;;;11.80;9.20;;;;;;;5.56;93.04;100724.47;5114601;28;20059;-84
2023/05/08 00:59:15;;;;;;;12.20;9.23;;;;;;;5.36;92.67;100689.34;5115125;28;20027;-84
2023/05/08 01:01:42;;;;;;;11.00;8.38;;;;;;;5.52;92.89;100741.75;5096161;28;20027;-84
2023/05/08 01:04:07;;;;;;;13.15;9.30;;;;;;;5.52;93.25;100746.94;5114512;28;20439;-84
2023/05/08 01:06:33;;;;;;;9.50;7.90;;;;;;;5.31;93.55;100708.31;5114121;28;20114;-84
2023/05/08 01:08:59;;;;;;;9.75;8.43;;;;;;;5.24;93.67;100699.78;5096009;28;20521;-83
2023/05/08 01:11:49;;;;;;;10.25;8.23;;;;;;;5.07;93.96;100694.75;5096282;28;20027;-83
2023/05/08 01:14:20;;;;;;;10.80;8.38;;;;;;;5.36;94.31;100740.16;5096153;28;20092;-84
2023/05/08 01:16:54;;;;;;;11.90;8.13;;;;;;;5.40;93.57;100741.84;5114034;28;20032;-84
2023/05/08 01:19:56;;;;;;;12.30;8.57;;;;;;;5.42;93.77;100751.28;5114189;28;20110;-83
2023/05/08 01:23:00;;;;;;;10.93;8.13;;;;;;;5.43;93.64;100745.25;5096010;28;20057;-83
2023/05/08 01:25:43;;;;;;;8.98;7.60;;;;;;;5.35;93.97;100741.00;4994964;28;20080;-83
2023/05/08 01:28:36;;;;;;;12.02;8.57;;;;;;;5.33;94.40;100758.25;5011442;28;20089;-83
2023/05/08 01:31:36;;;;;;;9.20;7.88;;;;;;;5.24;94.61;100754.03;5011358;28;20037;-84
2023/05/08 01:34:18;;;;;;;9.27;8.25;;;;;;;5.26;94.54;100758.28;4933560;29;20172;-84
2023/05/08 01:36:52;;;;;;;10.23;8.25;;;;;;;5.05;94.93;100734.34;4933526;29;20046;-83
2023/05/08 01:39:23;;;;;;;11.68;7.93;;;;;;;5.15;95.18;100739.44;4933238;29;20487;-84
2023/05/08 01:42:01;;;;;;;9.98;7.97;;;;;;;5.18;94.87;100752.34;4933500;29;20032;-83
2023/05/08 01:44:36;;;;;;;10.20;8.60;;;;;;;4.98;95.42;100733.53;4933536;29;20043;-83
2023/05/08 01:47:06;;;;;;;12.38;8.18;;;;;;;5.02;95.88;100748.16;4933539;29;20044;-83
2023/05/08 01:49:42;;;;;;;9.50;7.38;;;;;;;4.73;95.78;100707.03;4933075;29;20040;-83
2023/05/08 01:52:33;;;;;;;12.43;8.63;;;;;;;5.06;95.67;100756.75;4933453;29;20035;-83
2023/05/08 01:55:08;;;;;;;10.48;8.10;;;;;;;4.75;95.42;100700.13;4933481;29;20114;-83
2023/05/08 01:57:37;;;;;;;10.82;7.78;;;;;;;5.03;95.44;100747.28;4917167;29;20044;-83
2023/05/08 02:00:04;;;;;;;9.55;7.35;;;;;;;4.87;95.21;100714.69;4962044;28;20038;-84
2023/05/08 02:02:31;;;;;;;8.30;7.38;;;;;;;5.13;94.77;100746.34;4991120;28;20660;-83
2023/05/08 02:04:57;;;;;;;9.13;7.70;;;;;;;4.96;94.51;100725.78;4991250;28;20080;-83
2023/05/08 02:07:24;;;;;;;9.40;6.97;;;;;;;4.99;94.35;100736.09;4991015;28;20044;-83
2023/05/08 02:09:51;;;;;;;9.57;7.43;;;;;;;4.85;94.51;100719.84;5016983;28;20044;-83
2023/05/08 02:12:17;;;;;;;10.65;7.75;;;;;;;4.95;94.22;100747.31;5092775;28;20506;-83
2023/05/08 02:14:46;;;;;;;8.68;6.75;;;;;;;4.91;94.23;100737.03;5074438;28;20445;-83
2023/05/08 02:17:15;;;;;;;8.02;7.15;;;;;;;4.95;94.63;100754.22;5092728;28;20024;-84
2023/05/08 02:19:43;;;;;;;11.70;9.52;;;;;;;4.80;94.78;100720.72;5092410;28;20039;-84
2023/05/08 02:22:09;;;;;;;10.00;7.50;;;;;;;4.82;94.94;100726.75;5074728;28;20024;-83
2023/05/08 02:24:36;;;;;;;11.85;7.75;;;;;;;4.98;94.69;100759.38;5074336;28;20035;-84
2023/05/08 02:27:01;;;;;;;10.05;8.00;;;;;;;5.02;94.83;100767.97;5092691;28;20119;-83
2023/05/08 02:29:29;;;;;;;9.40;7.22;;;;;;;4.52;95.01;100700.25;5092533;28;20142;-83
2023/05/08 02:31:55;;;;;;;8.40;7.18;;;;;;;4.96;94.88;100777.44;5049442;28;20565;-83
2023/05/08 02:34:22;;;;;;;8.02;6.60;;;;;;;4.57;94.87;100711.41;5049566;28;20053;-83
2023/05/08 02:36:51;;;;;;;8.70;7.10;;;;;;;4.72;94.91;100737.13;5032744;28;20033;-84
2023/05/08 02:39:18;;;;;;;9.43;7.53;;;;;;;4.88;94.84;100770.59;5049937;28;20040;-84
2023/05/08 02:41:44;;;;;;;9.30;7.55;;;;;;;4.89;95.21;100767.16;5049412;28;20037;-84
2023/05/08 02:44:09;;;;;;;11.55;7.35;;;;;;;4.79;95.50;100770.66;5049657;28;20036;-84
2023/05/08 02:46:45;;;;;;;8.63;7.00;;;;;;;4.78;95.91;100771.53;5032770;28;20033;-83
2023/05/08 02:49:21;;;;;;;9.43;7.55;;;;;;;4.84;95.29;100792.97;5032956;28;20032;-84
2023/05/08 02:51:54;;;;;;;8.27;6.82;;;;;;;4.81;95.81;100789.59;5049010;28;20044;-84
2023/05/08 02:54:45;;;;;;;10.57;7.50;;;;;;;4.80;95.75;100798.16;5049570;28;20025;-83
2023/05/08 02:57:23;;;;;;;8.73;7.43;;;;;;;4.89;96.07;100801.59;5032519;28;20037;-83
2023/05/08 02:59:53;;;;;;;9.15;7.40;;;;;;;4.73;96.16;100784.44;5049248;28;20064;-84
2023/05/08 03:02:29;;;;;;;9.18;7.38;;;;;;;4.87;96.12;100802.44;5043406;28;20043;-83
2023/05/08 03:05:17;;;;;;;9.88;7.28;;;;;;;4.79;95.96;100792.16;5073749;28;20036;-84
2023/05/08 03:07:46;;;;;;;8.77;7.22;;;;;;;4.77;96.51;100793.91;5091782;28;20024;-83
2023/05/08 03:10:14;;;;;;;11.60;7.90;;;;;;;4.64;96.26;100766.44;5092156;28;20059;-84
2023/05/08 03:12:45;;;;;;;9.48;7.47;;;;;;;4.74;96.41;100799.91;5091848;28;20039;-83
2023/05/08 03:15:25;;;;;;;9.77;7.80;;;;;;;4.78;96.52;100805.94;5073951;28;20036;-83
2023/05/08 03:18:02;;;;;;;11.32;7.75;;;;;;;4.53;96.11;100757.88;5073479;28;20438;-83
2023/05/08 03:20:32;;;;;;;10.13;8.20;;;;;;;4.61;96.06;100771.59;5073920;28;20360;-84
2023/05/08 03:22:59;;;;;;;9.80;7.20;;;;;;;4.70;96.19;100793.03;5091893;28;20074;-84
2023/05/08 03:25:26;;;;;;;10.95;8.00;;;;;;;4.72;95.98;100787.91;5091883;28;20028;-84
2023/05/08 03:27:52;;;;;;;9.52;7.35;;;;;;;4.67;95.81;100787.03;5073407;28;20024;-84
2023/05/08 03:30:19;;;;;;;9.80;7.97;;;;;;;4.76;95.56;100784.41;5091787;28;20057;-84
2023/05/08 03:32:46;;;;;;;9.75;7.75;;;;;;;4.49;95.89;100769.91;5091774;28;20424;-84
2023/05/08 03:35:14;;;;;;;9.85;7.35;;;;;;;4.61;96.13;100800.84;5091962;28;20051;-84
2023/05/08 03:37:40;;;;;;;10.38;7.05;;;;;;;4.66;96.10;100804.25;5073462;28;20031;-84
2023/05/08 03:40:07;;;;;;;8.98;6.57;;;;;;;4.57;96.21;100793.13;5091813;28;20032;-83
2023/05/08 03:42:33;;;;;;;7.72;6.75;;;;;;;4.48;96.23;100768.22;5091770;28;20024;-83
2023/05/08 03:44:59;;;;;;;9.23;7.10;;;;;;;4.39;96.08;100769.09;5091321;28;20029;-83
2023/05/08 03:47:26;;;;;;;9.57;7.82;;;;;;;4.64;96.11;100799.97;5073710;28;20375;-84
2023/05/08 03:49:51;;;;;;;9.40;6.78;;;;;;;4.65;95.98;100801.69;5073202;28;20032;-84
2023/05/08 03:52:17;;;;;;;12.18;7.30;;;;;;;4.54;95.65;100769.91;5091731;28;20024;-84
2023/05/08 03:54:42;;;;;;;8.05;7.20;;;;;;;4.72;95.63;100804.25;5073182;28;20483;-84
2023/05/08 03:57:08;;;;;;;9.85;6.88;;;;;;;4.68;95.65;100779.31;5073373;28;20077;-84
2023/05/08 04:00:20;;;;;;;10.07;7.05;;;;;;;4.99;94.96;100794.63;5091504;28;20041;-84
2023/05/08 04:03:06;;;;;;;9.80;6.93;;;;;;;5.37;93.89;100814.22;5073786;28;20036;-84
2023/05/08 04:05:42;;;;;;;6.68;5.55;;;;;;;5.87;91.69;100818.13;5077210;28;20085;-85
2023/05/08 04:08:23;;;;;;;7.72;6.38;;;;;;;6.10;89.82;100773.97;5077036;28;20041;-85
2023/05/08 04:10:57;;;;;;;8.75;5.93;;;;;;;6.93;85.98;100803.19;5095530;28;20056;-86
2023/05/08 04:13:27;;;;;;;7.60;6.22;;;;;;;7.68;83.03;100785.69;5077050;28;20020;-86
2023/05/08 04:16:04;;;;;;;7.57;5.47;;;;;;;8.36;79.72;100819.91;5076594;28;20032;-86
2023/05/08 04:18:33;;;;;;;8.57;5.78;;;;;;;8.14;79.19;100796.13;5076834;28;20024;-86
2023/05/08 04:21:02;;;;;;;6.90;5.65;;;;;;;8.11;79.60;100811.72;5076665;28;20024;-86
2023/05/08 04:23:28;;;;;;;6.85;6.15;;;;;;;7.96;79.89;100812.88;5076897;28;20024;-87
2023/05/08 04:25:55;;;;;;;6.47;5.47;;;;;;;7.94;80.45;100791.28;5094796;28;20054;-86
2023/05/08 04:28:21;;;;;;;7.35;5.70;;;;;;;8.38;79.30;100825.97;5076960;28;20028;-86
2023/05/08 04:30:48;;;;;;;6.72;5.97;;;;;;;8.98;77.17;100828.25;5076826;28;20024;-86
2023/05/08 04:33:14;;;;;;;6.50;5.40;;;;;;;9.81;74.03;100828.94;5076771;28;20475;-87
2023/05/08 04:35:40;;;;;;;6.88;5.63;;;;;;;10.48;71.12;100837.63;5076375;28;20027;-87
2023/05/08 04:38:05;;;;;;;7.05;5.30;;;;;;;10.85;70.05;100830.53;5076558;28;20024;-87
2023/05/08 04:40:31;;;;;;;7.10;5.28;;;;;;;11.13;69.27;100831.44;5076755;28;20617;-87
2023/05/08 04:42:56;;;;;;;6.72;5.30;;;;;;;10.59;69.24;100820.88;5031482;28;20041;-87
2023/05/08 04:45:22;;;;;;;5.18;4.60;;;;;;;10.21;70.59;100846.16;5015058;28;20040;-87
2023/05/08 04:47:47;;;;;;;6.93;5.57;;;;;;;9.92;71.66;100852.09;5032083;28;20386;-87
2023/05/08 04:50:12;;;;;;;8.48;6.28;;;;;;;9.94;72.57;100855.50;5015255;28;20535;-88
2023/05/08 04:52:37;;;;;;;6.93;5.85;;;;;;;10.52;70.45;100866.19;5015067;28;20068;-88
2023/05/08 04:55:03;;;;;;;6.00;4.75;;;;;;;10.83;69.25;100859.25;5014868;28;20032;-88
2023/05/08 04:57:29;;;;;;;6.30;5.40;;;;;;;11.49;67.74;100862.50;5014929;28;20045;-88
2023/05/08 04:59:54;;;;;;;7.20;5.22;;;;;;;12.27;65.64;100857.38;5014808;28;20513;-88
2023/05/08 05:02:19;;;;;;;7.45;5.55;;;;;;;12.93;63.52;100866.31;5014945;28;20056;-89
2023/05/08 05:04:45;;;;;;;5.22;4.55;;;;;;;12.48;63.51;100880.16;5014822;28;20405;-88
2023/05/08 05:07:10;;;;;;;5.90;5.22;;;;;;;11.85;65.32;100880.56;5014954;28;20033;-88
2023/05/08 05:09:37;;;;;;;19.02;12.07;;;;;;;11.55;67.04;100874.53;5014865;28;20068;-89
2023/05/08 05:12:04;;;;;;;11.80;8.25;;;;;;;11.63;67.33;100867.28;5014555;28;20481;-89
2023/05/08 05:14:30;;;;;;;7.95;6.20;;;;;;;12.26;66.60;100875.72;5058510;28;20055;-89
2023/05/08 05:16:56;;;;;;;8.88;6.82;;;;;;;13.43;63.55;100875.81;5075700;28;20028;-90
2023/05/08 05:19:22;;;;;;;5.45;4.80;;;;;;;14.68;59.97;100877.66;5075719;28;20035;-89
2023/05/08 05:21:47;;;;;;;5.63;4.60;;;;;;;14.63;58.09;100874.41;5075615;28;20123;-90
2023/05/08 05:24:13;;;;;;;14.05;7.53;;;;;;;14.78;57.83;100872.88;5075569;28;20414;-89
2023/05/08 05:26:39;;;;;;;7.45;5.45;;;;;;;13.49;59.87;100883.47;5075563;28;20036;-88
2023/05/08 05:29:04;;;;;;;5.70;4.80;;;;;;;13.01;61.96;100879.13;5050495;28;20037;-89
2023/05/08 05:31:30;;;;;;;8.27;5.68;;;;;;;13.18;61.83;100878.50;5034288;28;20485;-89
2023/05/08 05:33:56;;;;;;;5.75;5.15;;;;;;;13.21;61.63;100867.94;5033705;28;20485;-89
2023/05/08 05:36:22;;;;;;;7.47;5.20;;;;;;;13.65;60.56;100874.09;5034126;28;20033;-90
2023/05/08 05:38:49;;;;;;;6.10;4.80;;;;;;;13.90;58.00;100873.94;5033835;28;20036;-89
2023/05/08 05:41:15;;;;;;;5.07;4.53;;;;;;;14.33;58.11;100880.03;5034049;28;20033;-90
2023/05/08 05:43:41;;;;;;;5.50;4.93;;;;;;;15.17;56.22;100872.84;5033998;28;20036;-89
2023/05/08 05:46:08;;;;;;;5.15;4.72;;;;;;;14.85;56.29;100872.53;5033545;28;20033;-90
2023/05/08 05:48:35;;;;;;;7.00;6.28;;;;;;;14.71;56.92;100888.03;5033950;28;20103;-89
2023/05/08 05:51:01;;;;;;;5.10;4.60;;;;;;;14.16;57.94;100888.59;5030162;28;20040;-89
2023/05/08 05:53:26;;;;;;;7.00;5.30;;;;;;;14.18;58.55;100883.28;5013996;28;20592;-89
2023/05/08 05:55:52;;;;;;;6.75;5.43;;;;;;;14.26;57.97;100885.59;5013618;28;20072;-89
2023/05/08 05:58:19;;;;;;;5.78;5.20;;;;;;;14.68;56.65;100882.91;5013868;28;20032;-89
2023/05/08 06:00:46;;;;;;;8.63;5.40;;;;;;;15.11;56.56;100883.63;5013875;28;20041;-90
2023/05/08 06:03:12;;;;;;;6.15;4.72;;;;;;;15.30;55.91;100891.50;5013865;28;20090;-90
2023/05/08 06:05:39;;;;;;;6.40;5.70;;;;;;;15.31;56.25;100890.56;5013627;28;20038;-90
2023/05/08 06:08:05;;;;;;;6.22;5.45;;;;;;;14.53;56.62;100901.94;5036228;28;20036;-90
2023/05/08 06:10:30;;;;;;;7.18;5.88;;;;;;;14.35;57.40;100900.91;5009294;28;20517;-89
2023/05/08 06:12:56;;;;;;;8.57;5.68;;;;;;;14.61;57.24;100869.22;4991863;28;20111;-90
2023/05/08 06:15:21;;;;;;;6.03;5.35;;;;;;;15.21;55.57;100892.75;5009917;28;20041;-89
2023/05/08 06:17:46;;;;;;;6.97;6.07;;;;;;;15.90;54.78;100890.38;4993602;28;20041;-90
2023/05/08 06:20:12;;;;;;;7.88;6.72;;;;;;;15.40;54.81;100890.16;4993914;28;20034;-89
2023/05/08 06:22:39;;;;;;;9.35;7.03;;;;;;;15.17;56.15;100891.22;5038862;28;20452;-89
2023/05/08 06:25:06;;;;;;;8.05;5.93;;;;;;;14.96;56.45;100886.03;5052718;28;20091;-89
2023/05/08 06:27:35;;;;;;;8.93;5.75;;;;;;;17.08;53.69;100900.13;5053081;28;20055;-90
2023/05/08 06:30:03;;;;;;;6.50;5.70;;;;;;;18.77;49.37;100891.38;5051609;28;20033;-90
2023/05/08 06:32:29;;;;;;;6.72;5.70;;;;;;;19.85;47.32;100896.91;5028569;28;20106;-90
2023/05/08 06:34:54;;;;;;;8.00;6.28;;;;;;;20.16;45.56;100908.09;5047798;28;20524;-89
2023/05/08 06:37:19;;;;;;;7.60;6.60;;;;;;;18.94;46.11;100908.81;5041281;28;20052;-90
2023/05/08 06:39:45;;;;;;;9.02;6.57;;;;;;;18.14;48.01;100902.16;5041374;28;20403;-90
2023/05/08 06:42:10;;;;;;;7.00;5.57;;;;;;;18.98;47.87;100906.84;5073231;28;20043;-89
2023/05/08 06:44:40;;;;;;;6.20;5.57;;;;;;;18.69;46.99;100935.81;5077000;28;20028;-94
2023/05/08 06:47:07;;;;;;;7.13;5.95;;;;;;;19.73;45.25;100939.16;5073701;28;20475;-87
2023/05/08 06:49:34;;;;;;;5.63;5.13;;;;;;;20.86;43.38;100919.22;5069309;28;20036;-87
2023/05/08 06:52:00;;;;;;;7.97;7.18;;;;;;;21.48;43.33;100913.06;5052550;28;20047;-88
2023/05/08 06:54:25;;;;;;;7.10;6.40;;;;;;;22.26;42.09;100907.34;5052684;28;20400;-88
2023/05/08 06:56:52;;;;;;;8.95;6.65;;;;;;;23.34;40.87;100910.47;5052346;28;20028;-88
2023/05/08 06:59:17;;;;;;;7.55;6.75;;;;;;;23.35;40.41;100901.56;5052598;28;20036;-88
2023/05/08 07:01:43;;;;;;;7.10;6.40;;;;;;;23.68;39.63;100913.94;5052525;28;20361;-88
2023/05/08 07:04:08;;;;;;;6.40;5.28;;;;;;;23.58;39.41;100912.97;5052292;28;20067;-88
2023/05/08 07:06:33;;;;;;;7.07;6.22;;;;;;;23.53;39.57;100920.50;5052460;28;20028;-88
2023/05/08 07:08:59;;;;;;;7.07;6.20;;;;;;;23.59;39.83;100922.66;5052279;28;20036;-87
2023/05/08 07:11:24;;;;;;;7.15;6.43;;;;;;;24.51;38.66;100915.91;5052371;28;20036;-87
2023/05/08 07:13:50;;;;;;;5.20;4.70;;;;;;;24.55;38.14;100914.69;5052259;28;20032;-87
2023/05/08 07:16:15;;;;;;;5.95;5.15;;;;;;;26.10;37.06;100909.84;5052456;28;20544;-87
2023/05/08 07:18:42;;;;;;;5.90;5.30;;;;;;;26.19;36.39;100910.00;5052529;28;20039;-87
2023/05/08 07:21:07;;;;;;;5.90;5.32;;;;;;;26.34;35.58;100916.59;5068325;28;20101;-87
2023/05/08 07:23:33;;;;;;;5.07;4.68;;;;;;;26.06;35.45;100887.09;5091619;28;20319;-87
2023/05/08 07:25:58;;;;;;;5.18;4.72;;;;;;;25.16;36.43;100932.56;5073166;28;20024;-87
2023/05/08 07:28:24;;;;;;;5.88;4.95;;;;;;;24.57;36.79;100911.91;5073974;28;20122;-87
2023/05/08 07:30:49;;;;;;;6.78;5.50;;;;;;;24.12;37.50;100918.28;5073868;28;20032;-86
2023/05/08 07:33:15;;;;;;;6.10;5.55;;;;;;;24.02;37.64;100903.19;5091542;28;20430;-87
2023/05/08 07:35:41;;;;;;;6.70;5.88;;;;;;;23.92;37.81;100918.25;5073708;28;20067;-87
2023/05/08 07:38:07;;;;;;;6.60;5.93;;;;;;;24.49;38.04;100920.53;5095256;28;20089;-87
2023/05/08 07:40:32;;;;;;;5.15;4.75;;;;;;;25.42;36.99;100889.41;5077469;28;20028;-87
2023/05/08 07:42:58;;;;;;;6.03;5.53;;;;;;;25.97;36.22;100890.63;5077418;28;20051;-87
2023/05/08 07:45:23;;;;;;;5.28;4.78;;;;;;;25.69;36.40;100908.25;5077552;28;20028;-86
2023/05/08 07:47:51;;;;;;;5.20;4.80;;;;;;;25.87;36.26;100885.28;5095685;28;20024;-87
2023/05/08 07:50:17;;;;;;;7.38;5.00;;;;;;;25.06;36.16;100878.31;5095719;28;20036;-84
2023/05/08 07:52:42;;;;;;;5.43;4.93;;;;;;;25.21;35.93;100897.50;5105950;28;20494;-86
2023/05/08 07:55:07;;;;;;;6.13;5.53;;;;;;;25.47;35.88;100922.69;5115438;28;20062;-84
2023/05/08 07:57:40;;;;;;;8.02;7.20;;;;;;;25.79;36.25;100903.00;5097648;28;20027;-84
2023/05/08 08:00:08;;;;;;;5.95;5.35;;;;;;;26.62;35.24;100897.00;5115581;28;20024;-84
2023/05/08 08:02:33;;;;;;;6.72;5.93;;;;;;;26.04;35.56;100889.06;5097536;28;20024;-84
2023/05/08 08:04:59;;;;;;;6.57;5.88;;;;;;;26.31;35.07;100892.84;5115551;28;20103;-84
2023/05/08 08:07:25;;;;;;;8.38;6.90;;;;;;;24.99;36.05;100917.13;5115535;28;20114;-85
2023/05/08 08:09:50;;;;;;;6.95;6.00;;;;;;;23.60;37.31;100895.94;5115564;28;20428;-84
2023/05/08 08:12:15;;;;;;;7.45;6.00;;;;;;;23.26;38.21;100907.59;5115281;28;20027;-84
2023/05/08 08:14:40;;;;;;;6.00;5.40;;;;;;;22.91;38.17;100928.00;5115894;28;20043;-84
2023/05/08 08:17:06;;;;;;;7.07;6.03;;;;;;;22.52;38.89;100885.94;5115378;28;20023;-84
2023/05/08 08:19:31;;;;;;;6.53;5.38;;;;;;;22.55;39.00;100913.09;5115171;28;20360;-83
2023/05/08 08:21:56;;;;;;;6.20;5.13;;;;;;;20.94;40.04;100905.41;5095797;28;20508;-82
2023/05/08 08:24:22;;;;;;;6.07;5.07;;;;;;;19.14;42.13;100873.25;5114532;28;20031;-84
2023/05/08 08:26:47;;;;;;;6.30;5.72;;;;;;;18.17;44.54;100913.38;5112460;28;20383;-84
2023/05/08 08:29:13;;;;;;;7.68;5.55;;;;;;;17.21;47.04;100903.81;5103865;28;20039;-84
2023/05/08 08:31:38;;;;;;;8.27;5.75;;;;;;;16.79;47.80;100887.69;5084331;28;20024;-84
2023/05/08 08:34:03;;;;;;;7.72;5.82;;;;;;;15.65;49.70;100882.00;5085939;28;20047;-84
2023/05/08 08:36:29;;;;;;;8.38;6.50;;;;;;;14.83;51.11;100918.97;5083795;28;20040;-84
2023/05/08 08:38:54;;;;;;;9.57;6.07;;;;;;;14.25;52.74;100907.47;5094595;28;20024;-84
2023/05/08 08:41:20;;;;;;;6.43;5.40;;;;;;;14.06;53.75;100871.53;5094810;28;20031;-84
2023/05/08 08:43:46;;;;;;;6.85;5.55;;;;;;;14.21;54.35;100857.81;5094746;28;20059;-84
2023/05/08 08:46:14;;;;;;;7.82;5.32;;;;;;;14.20;52.54;100903.28;5076074;28;20467;-84
2023/05/08 08:48:43;;;;;;;8.25;5.65;;;;;;;13.86;53.39;100902.94;5093236;28;20467;-84
2023/05/08 08:51:17;;;;;;;7.00;5.78;;;;;;;13.63;54.12;100901.22;5094132;28;20050;-84
2023/05/08 08:53:47;;;;;;;7.38;5.53;;;;;;;13.60;54.54;100862.94;5094583;28;20047;-84
2023/05/08 08:56:15;;;;;;;6.07;5.45;;;;;;;13.98;54.97;100889.34;5094176;28;20031;-84
2023/05/08 08:58:50;;;;;;;6.80;6.05;;;;;;;14.10;54.29;100909.78;5094339;28;20030;-84
2023/05/08 09:01:18;;;;;;;6.85;5.40;;;;;;;14.03;54.13;100913.59;5094014;28;20074;-84
2023/05/08 09:03:43;;;;;;;8.77;4.65;;;;;;;14.14;53.82;100907.91;5094208;28;20030;-84
2023/05/08 09:06:09;;;;;;;15.63;6.05;;;;;;;13.95;53.54;100924.38;5094455;28;20103;-83
2023/05/08 09:08:34;;;;;;;6.78;4.75;;;;;;;13.75;53.24;100878.97;5076245;28;20534;-84
2023/05/08 09:11:01;;;;;;;4.97;4.38;;;;;;;13.63;52.46;100890.75;5094008;28;20051;-84
2023/05/08 09:13:28;;;;;;;5.45;4.00;;;;;;;13.36;54.00;100875.22;5075955;28;20032;-84
2023/05/08 09:15:53;;;;;;;5.80;4.10;;;;;;;13.13;53.09;100886.53;5094029;28;20062;-83
2023/05/08 09:18:19;;;;;;;5.10;3.78;;;;;;;13.04;54.13;100855.47;5075455;28;20542;-84
2023/05/08 09:20:44;;;;;;;7.20;4.40;;;;;;;13.27;54.09;100883.41;5075934;28;20024;-83
2023/05/08 09:23:10;;;;;;;4.82;4.15;;;;;;;13.11;54.29;100871.81;5093775;28;20028;-84
2023/05/08 09:25:47;;;;;;;5.85;4.38;;;;;;;12.94;54.60;100909.06;5093910;28;20540;-84
2023/05/08 09:28:17;;;;;;;7.55;4.70;;;;;;;12.82;55.18;100912.94;5093356;28;20495;-83
2023/05/08 09:30:58;;;;;;;5.93;4.55;;;;;;;12.92;55.25;100882.94;5075440;28;20529;-83
2023/05/08 09:33:28;;;;;;;9.05;4.53;;;;;;;13.04;55.98;100920.88;5093504;28;20063;-84
2023/05/08 09:35:57;;;;;;;6.53;5.10;;;;;;;12.89;56.49;100848.19;5093752;28;20152;-84
2023/05/08 09:38:35;;;;;;;8.05;4.90;;;;;;;13.32;56.93;100935.59;5076459;28;20046;-85
2023/05/08 09:41:15;;;;;;;6.88;5.18;;;;;;;12.97;55.93;100919.38;5077760;28;20092;-85
2023/05/08 09:43:42;;;;;;;5.20;4.70;;;;;;;12.87;56.94;100887.47;5094340;28;20024;-84
2023/05/08 09:46:23;;;;;;;8.45;5.20;;;;;;;12.64;56.55;100897.91;5093878;28;20028;-85
2023/05/08 09:48:49;;;;;;;6.07;5.25;;;;;;;12.56;57.12;100907.78;5093500;28;20365;-84
2023/05/08 09:51:15;;;;;;;5.72;5.00;;;;;;;12.76;57.49;100920.16;5075099;28;20024;-84
2023/05/08 09:53:40;;;;;;;6.53;5.35;;;;;;;12.65;57.58;100915.31;5075757;28;20031;-85
2023/05/08 09:56:06;;;;;;;10.35;5.70;;;;;;;12.62;57.53;100938.94;5093472;28;20024;-84
2023/05/08 09:58:39;;;;;;;7.90;4.63;;;;;;;12.41;57.39;100896.94;5093338;28;20028;-84
2023/05/08 10:01:05;;;;;;;6.85;4.60;;;;;;;12.27;57.11;100872.22;5074545;28;20494;-85
2023/05/08 10:03:47;;;;;;;6.00;4.60;;;;;;;12.35;56.37;100918.06;5093137;28;20024;-84
2023/05/08 10:06:15;;;;;;;7.70;4.50;;;;;;;12.48;56.34;100923.72;5074457;28;20389;-84
2023/05/08 10:08:41;;;;;;;8.05;4.88;;;;;;;12.49;57.61;100910.59;5093141;28;20388;-85
2023/05/08 10:11:17;;;;;;;10.88;8.20;;;;;;;12.46;56.49;100928.13;5074580;28;20030;-84
2023/05/08 10:13:45;;;;;;;5.72;4.45;;;;;;;12.25;56.63;100914.03;5093001;28;20028;-84
2023/05/08 10:16:16;;;;;;;5.60;4.90;;;;;;;11.88;57.81;100854.34;5092665;28;20031;-85
2023/05/08 10:18:47;;;;;;;7.15;5.45;;;;;;;12.19;59.16;100912.50;5092816;28;20043;-85
2023/05/08 10:21:14;;;;;;;6.38;5.68;;;;;;;11.96;59.67;100902.78;5092794;28;20085;-84
2023/05/08 10:23:41;;;;;;;8.13;6.75;;;;;;;12.13;60.85;100917.91;5092824;28;20373;-84
2023/05/08 10:26:13;;;;;;;7.30;6.28;;;;;;;11.96;60.59;100894.94;5092440;28;20023;-84
2023/05/08 10:28:57;;;;;;;6.20;5.30;;;;;;;12.07;59.83;100912.03;5074459;28;20024;-84
2023/05/08 10:31:32;;;;;;;8.00;5.35;;;;;;;12.34;60.30;100911.13;5092351;28;20414;-84
2023/05/08 10:34:01;;;;;;;6.10;5.03;;;;;;;12.24;58.21;100867.94;5092623;28;20048;-84
2023/05/08 10:36:27;;;;;;;7.20;5.40;;;;;;;12.16;58.22;100844.69;5092679;28;20023;-85
2023/05/08 10:38:56;;;;;;;8.00;6.00;;;;;;;12.10;58.52;100854.50;5092422;28;20044;-84
2023/05/08 10:41:22;;;;;;;7.03;5.75;;;;;;;12.23;59.41;100880.16;5074433;28;20487;-85
2023/05/08 10:43:49;;;;;;;7.57;6.78;;;;;;;12.35;60.18;100891.94;5074186;28;20062;-84
2023/05/08 10:46:21;;;;;;;7.25;5.70;;;;;;;12.29;58.47;100849.50;5092120;28;20128;-84
2023/05/08 10:49:06;;;;;;;6.68;5.72;;;;;;;12.21;58.57;100842.75;5092258;28;20115;-84
2023/05/08 10:51:43;;;;;;;7.05;5.78;;;;;;;12.43;57.87;100861.19;5092489;28;20024;-84
2023/05/08 10:54:14;;;;;;;9.98;5.38;;;;;;;12.59;58.55;100881.53;5091974;28;20553;-84
2023/05/08 10:56:39;;;;;;;;;;;;;;;12.57;59.12;100888.59;5092616;28;20032;-84
2023/05/08 10:59:05;;;;;;;6.50;5.90;;;;;;;12.53;58.59;100872.16;5092104;28;19907;-84
2023/05/08 11:01:30;;;;;;;12.85;5.10;;;;;;;12.44;57.12;100855.03;5092315;28;20061;-84
2023/05/08 11:03:56;;;;;;;7.93;5.05;;;;;;;12.23;57.19;100845.34;5092088;28;20103;-84
2023/05/08 11:06:47;;;;;;;6.30;4.82;;;;;;;12.36;57.31;100893.66;5104631;28;20110;-84
2023/05/08 11:09:34;;;;;;;6.75;5.85;;;;;;;12.24;57.97;100868.78;5112342;28;20023;-84
2023/05/08 11:12:24;;;;;;;6.38;5.20;;;;;;;12.06;57.97;100830.25;5008865;28;20068;-84
2023/05/08 11:15:05;;;;;;;9.38;7.15;;;;;;;12.37;57.61;100871.81;5009774;28;20029;-84
2023/05/08 11:17:31;;;;;;;6.88;5.95;;;;;;;12.38;59.80;100864.84;5009378;28;20045;-84
2023/05/08 11:19:59;;;;;;;6.63;5.93;;;;;;;12.30;58.42;100832.91;5009760;28;20106;-84
2023/05/08 11:22:28;;;;;;;12.85;6.97;;;;;;;12.57;59.19;100873.75;5009353;28;20065;-84
2023/05/08 11:25:00;;;;;;;7.78;6.32;;;;;;;12.67;59.91;100879.50;5009638;28;20483;-84
2023/05/08 11:27:30;;;;;;;10.90;8.63;;;;;;;12.67;59.63;100845.53;5009672;28;20122;-84
2023/05/08 11:30:18;;;;;;;10.82;6.80;;;;;;;12.86;59.60;100880.56;5009589;28;20033;-84
2023/05/08 11:33:01;;;;;;;7.53;6.57;;;;;;;12.83;58.21;100871.97;5009669;28;20030;-84
2023/05/08 11:35:59;;;;;;;8.73;6.53;;;;;;;12.74;59.10;100847.00;4992633;28;20042;-84